createdAt,value
2018-07-31T08:29:43.410Z,100954.98
2018-07-31T08:32:13.194Z,100963.73
2018-07-31T08:34:49.779Z,100955.59
2018-07-31T08:37:19.391Z,100957.41
2018-07-31T08:39:49.013Z,100958.30
2018-07-31T08:42:18.633Z,100959.37
2018-07-31T08:44:48.252Z,100959.11
2018-07-31T08:47:17.865Z,100960.20
2018-07-31T08:49:47.491Z,100950.84
2018-07-31T08:52:17.319Z,100952.44
2018-07-31T08:54:46.966Z,100955.06
2018-07-31T08:57:16.667Z,100948.74
2018-07-31T08:59:46.498Z,100949.73
2018-07-31T09:02:15.788Z,100953.97
2018-07-31T09:04:45.374Z,100952.58
2018-07-31T09:07:15.008Z,100958.43
2018-07-31T09:09:44.684Z,100949.63
2018-07-31T09:12:14.326Z,100951.82
2018-07-31T09:14:43.974Z,100944.36
2018-07-31T09:17:13.759Z,100945.76
2018-07-31T09:19:43.452Z,100935.28
2018-07-31T09:22:13.145Z,100941.77
2018-07-31T09:24:42.817Z,100945.42
2018-07-31T09:27:12.757Z,100936.86
2018-07-31T09:29:42.373Z,100936.85
2018-07-31T09:32:11.981Z,100940.91
2018-07-31T09:34:46.489Z,100938.02
2018-07-31T09:37:16.907Z,100938.91
2018-07-31T09:39:46.521Z,100932.80
2018-07-31T09:42:16.173Z,100936.88
2018-07-31T09:44:45.861Z,100939.38
2018-07-31T09:47:15.562Z,100943.84
2018-07-31T09:49:45.231Z,100939.20
2018-07-31T09:52:14.830Z,100931.30
2018-07-31T18:57:34.889Z,100798.04
2018-07-31T19:00:05.832Z,100790.89
2018-07-31T19:02:35.447Z,100797.84
2018-07-31T19:05:06.538Z,100800.37
2018-07-31T19:07:35.687Z,100800.09
2018-07-31T19:10:04.757Z,100802.89
2018-07-31T19:12:34.352Z,100806.59
2018-07-31T19:15:04.078Z,100810.63
2018-07-31T19:17:33.681Z,100809.87
2018-07-31T19:20:03.582Z,100809.11
2018-07-31T19:22:33.499Z,100812.50
2018-07-31T19:25:03.867Z,100819.06
2018-07-31T19:27:33.481Z,100816.71
2018-07-31T19:30:03.134Z,100816.50
2018-07-31T19:32:32.923Z,100817.39
2018-07-31T19:35:01.468Z,100818.22
2018-07-31T19:37:30.511Z,100818.42
2018-07-31T19:39:59.802Z,100821.98
2018-07-31T19:42:29.413Z,100819.11
2018-07-31T19:44:59.021Z,100823.58
2018-07-31T19:47:27.854Z,100817.91
2018-07-31T19:49:57.869Z,100819.84
2018-07-31T19:52:27.701Z,100817.94
2018-07-31T19:54:57.372Z,100824.00
2018-07-31T19:57:27.152Z,100827.89
2018-07-31T19:59:56.801Z,100828.77
2018-07-31T20:02:26.637Z,100822.82
2018-07-31T20:04:56.242Z,100827.64
2018-07-31T20:07:25.185Z,100832.93
2018-07-31T20:09:54.799Z,100833.07
2018-07-31T20:12:24.452Z,100831.25
2018-07-31T20:14:54.114Z,100837.53
2018-07-31T20:17:23.778Z,100834.84
2018-07-31T20:19:53.421Z,100841.13
2018-07-31T20:22:23.132Z,100835.55
2018-07-31T20:24:52.935Z,100840.83
2018-07-31T20:27:22.642Z,100836.69
2018-07-31T20:29:52.392Z,100838.61
2018-07-31T20:32:22.806Z,100843.41
2018-07-31T20:34:52.540Z,100844.07
2018-07-31T20:37:22.153Z,100848.80
2018-07-31T20:39:51.857Z,100853.02
2018-07-31T20:42:21.488Z,100853.21
2018-07-31T20:44:51.183Z,100854.36
2018-07-31T20:47:20.835Z,100857.36
2018-07-31T20:49:50.597Z,100859.55
2018-07-31T20:52:20.211Z,100862.12
2018-07-31T20:54:49.813Z,100860.03
2018-07-31T20:57:19.512Z,100859.52
2018-07-31T20:59:49.152Z,100862.33
2018-07-31T21:02:18.814Z,100864.64
2018-07-31T21:04:48.447Z,100867.41
2018-07-31T21:07:18.089Z,100868.94
2018-07-31T21:09:48.090Z,100867.00
2018-07-31T21:12:17.738Z,100867.95
2018-07-31T21:14:47.406Z,100868.44
2018-07-31T21:17:17.067Z,100870.25
2018-07-31T21:19:46.709Z,100877.06
2018-07-31T21:22:16.405Z,100872.34
2018-07-31T21:24:46.037Z,100876.64
2018-07-31T21:27:15.569Z,100877.30
2018-07-31T21:29:45.559Z,100877.00
2018-07-31T21:32:15.165Z,100882.67
2018-07-31T21:34:45.000Z,100890.22
2018-07-31T21:37:14.530Z,100887.05
2018-07-31T21:39:44.130Z,100890.73
2018-07-31T21:42:13.722Z,100889.21
2018-07-31T21:44:43.318Z,100893.02
2018-07-31T21:47:13.137Z,100884.75
2018-07-31T21:49:42.802Z,100890.12
2018-07-31T21:52:12.524Z,100888.95
2018-07-31T21:54:42.165Z,100891.11
2018-07-31T21:57:11.756Z,100896.34
2018-07-31T21:59:41.397Z,100894.89
2018-07-31T22:02:11.058Z,100903.67
2018-07-31T22:04:40.663Z,100897.22
2018-07-31T22:07:10.331Z,100900.66
2018-07-31T22:09:43.349Z,100897.66
2018-07-31T22:12:13.325Z,100900.12
2018-07-31T22:14:43.412Z,100900.84
2018-07-31T22:17:13.001Z,100894.98
2018-07-31T22:19:42.613Z,100895.22
2018-07-31T22:22:12.235Z,100897.59
2018-07-31T22:24:41.893Z,100896.14
2018-07-31T22:27:11.454Z,100900.29
2018-07-31T22:29:41.062Z,100899.50
2018-07-31T22:32:10.857Z,100903.61
2018-07-31T22:34:40.427Z,100900.69
2018-07-31T22:37:10.026Z,100902.23
2018-07-31T22:39:39.644Z,100905.55
2018-07-31T22:42:09.201Z,100900.34
2018-07-31T22:44:38.822Z,100900.98
2018-07-31T22:47:08.437Z,100901.25
2018-07-31T22:49:38.221Z,100900.54
2018-07-31T22:52:08.069Z,100896.36
2018-07-31T22:54:37.677Z,100895.17
2018-07-31T22:57:07.292Z,100897.18
2018-07-31T22:59:36.953Z,100890.63
2018-07-31T23:02:07.092Z,100890.32
2018-07-31T23:04:36.953Z,100889.92
2018-07-31T23:07:07.459Z,100882.04
2018-07-31T23:09:37.122Z,100890.55
2018-07-31T23:12:06.766Z,100888.90
2018-07-31T23:14:36.367Z,100891.69
2018-07-31T23:17:06.352Z,100893.03
2018-07-31T23:19:35.942Z,100889.01
2018-07-31T23:22:05.527Z,100888.22
2018-07-31T23:24:35.160Z,100886.48
2018-07-31T23:27:04.778Z,100891.92
2018-07-31T23:29:34.397Z,100893.34
2018-07-31T23:32:03.993Z,100897.83
2018-07-31T23:34:33.638Z,100899.29
2018-07-31T23:37:03.242Z,100894.95
2018-07-31T23:39:32.861Z,100899.05
2018-07-31T23:42:02.442Z,100903.25
2018-07-31T23:44:32.143Z,100905.14
2018-07-31T23:47:01.753Z,100906.63
2018-07-31T23:49:31.469Z,100904.50
2018-07-31T23:52:01.550Z,100912.69
2018-07-31T23:54:31.286Z,100907.13
2018-07-31T23:57:00.886Z,100910.81
2018-07-31T23:59:30.527Z,100913.17
